sensor_id;sensor_type;location;lat;lon;timestamp;pressure;altitude;pressure_sealevel;temperature;humidity
12763;BME280;6445;52.490;13.378;2023-01-27T00:00:29;-12695.97;;;-146.10;100.00
12763;BME280;6445;52.490;13.378;2023-01-27T00:02:55;-12695.97;;;-146.10;100.00
12763;BME280;6445;52.490;13.378;2023-01-27T00:05:20;-12695.97;;;-146.10;100.00
12763;BME280;6445;52.490;13.378;2023-01-27T00:07:46;-12695.97;;;-146.10;100.00
12763;BME280;6445;52.490;13.378;2023-01-27T00:10:17;-12695.97;;;-146.10;100.00
12763;BME280;6445;52.490;13.378;2023-01-27T00:12:43;-12695.97;;;-146.10;100.00
12763;BME280;6445;52.490;13.378;2023-01-27T00:15:28;-12695.97;;;-146.10;100.00
12763;BME280;6445;52.490;13.378;2023-01-27T00:17:53;-12695.97;;;-146.10;100.00
12763;BME280;6445;52.490;13.378;2023-01-27T00:20:19;-12695.97;;;-146.10;100.00
12763;BME280;6445;52.490;13.378;2023-01-27T00:23:03;-12695.97;;;-146.10;100.00
12763;BME280;6445;52.490;13.378;2023-01-27T00:25:47;-12695.97;;;-146.10;100.00
12763;BME280;6445;52.490;13.378;2023-01-27T00:28:15;-12695.97;;;-146.10;100.00
12763;BME280;6445;52.490;13.378;2023-01-27T00:30:50;-12695.97;;;-146.10;100.00
12763;BME280;6445;52.490;13.378;2023-01-27T00:33:15;-12695.97;;;-146.10;100.00
12763;BME280;6445;52.490;13.378;2023-01-27T00:35:58;-12695.97;;;-146.10;100.00
12763;BME280;6445;52.490;13.378;2023-01-27T00:38:28;-12695.97;;;-146.10;100.00
12763;BME280;6445;52.490;13.378;2023-01-27T00:40:54;-12694.50;;;-146.10;100.00
12763;BME280;6445;52.490;13.378;2023-01-27T00:43:37;-12694.50;;;-146.10;100.00
12763;BME280;6445;52.490;13.378;2023-01-27T00:46:03;-12694.50;;;-146.10;100.00
12763;BME280;6445;52.490;13.378;2023-01-27T00:48:28;-12694.50;;;-146.10;100.00
12763;BME280;6445;52.490;13.378;2023-01-27T00:50:53;-12694.50;;;-146.10;100.00
12763;BME280;6445;52.490;13.378;2023-01-27T00:53:19;-12694.50;;;-146.10;100.00
12763;BME280;6445;52.490;13.378;2023-01-27T00:55:44;-12694.50;;;-146.10;100.00
12763;BME280;6445;52.490;13.378;2023-01-27T00:58:11;-12694.50;;;-146.10;100.00
12763;BME280;6445;52.490;13.378;2023-01-27T01:00:36;-12442.63;;;-146.10;100.00
12763;BME280;6445;52.490;13.378;2023-01-27T01:03:02;-12694.50;;;-146.10;100.00
12763;BME280;6445;52.490;13.378;2023-01-27T01:05:27;-12694.50;;;-146.10;100.00
12763;BME280;6445;52.490;13.378;2023-01-27T01:07:52;-12694.50;;;-146.10;100.00
12763;BME280;6445;52.490;13.378;2023-01-27T01:10:17;-12695.97;;;-146.10;100.00
12763;BME280;6445;52.490;13.378;2023-01-27T01:12:43;-12695.97;;;-146.10;100.00
12763;BME280;6445;52.490;13.378;2023-01-27T01:15:08;-12695.97;;;-146.10;100.00
12763;BME280;6445;52.490;13.378;2023-01-27T01:17:34;-12695.97;;;-146.10;100.00
12763;BME280;6445;52.490;13.378;2023-01-27T01:19:59;-12695.97;;;-146.10;100.00
12763;BME280;6445;52.490;13.378;2023-01-27T01:22:24;-12695.97;;;-146.10;100.00
12763;BME280;6445;52.490;13.378;2023-01-27T01:24:49;-12695.97;;;-146.10;100.00
12763;BME280;6445;52.490;13.378;2023-01-27T01:27:15;-12695.97;;;-146.10;100.00
12763;BME280;6445;52.490;13.378;2023-01-27T01:29:40;-12695.97;;;-146.10;100.00
12763;BME280;6445;52.490;13.378;2023-01-27T01:32:05;-12695.97;;;-146.10;100.00
12763;BME280;6445;52.490;13.378;2023-01-27T01:34:34;-12695.97;;;-146.10;100.00
12763;BME280;6445;52.490;13.378;2023-01-27T01:36:59;-12695.97;;;-146.10;100.00
12763;BME280;6445;52.490;13.378;2023-01-27T01:39:24;-12695.97;;;-146.10;100.00
12763;BME280;6445;52.490;13.378;2023-01-27T01:41:49;-12695.97;;;-146.10;100.00
12763;BME280;6445;52.490;13.378;2023-01-27T01:44:26;-12695.97;;;-146.10;100.00
12763;BME280;6445;52.490;13.378;2023-01-27T01:46:51;-12695.97;;;-146.10;100.00
12763;BME280;6445;52.490;13.378;2023-01-27T01:49:20;-12695.97;;;-146.10;100.00
12763;BME280;6445;52.490;13.378;2023-01-27T01:51:51;-12695.97;;;-146.10;100.00
12763;BME280;6445;52.490;13.378;2023-01-27T01:54:27;-12695.97;;;-146.10;100.00
12763;BME280;6445;52.490;13.378;2023-01-27T01:57:10;-12695.97;;;-146.10;100.00
12763;BME280;6445;52.490;13.378;2023-01-27T01:59:49;-12695.97;;;-146.10;100.00
12763;BME280;6445;52.490;13.378;2023-01-27T02:02:20;-12695.97;;;-146.10;100.00
12763;BME280;6445;52.490;13.378;2023-01-27T02:04:54;-12695.97;;;-146.10;100.00
12763;BME280;6445;52.490;13.378;2023-01-27T02:07:25;-12695.97;;;-146.10;100.00
12763;BME280;6445;52.490;13.378;2023-01-27T02:09:53;-12695.97;;;-146.10;100.00
12763;BME280;6445;52.490;13.378;2023-01-27T02:12:20;-12695.97;;;-146.10;100.00
12763;BME280;6445;52.490;13.378;2023-01-27T02:14:45;-12695.97;;;-146.10;100.00
12763;BME280;6445;52.490;13.378;2023-01-27T02:17:11;-12695.97;;;-146.10;100.00
12763;BME280;6445;52.490;13.378;2023-01-27T02:25:57;-12695.97;;;-146.10;100.00
12763;BME280;6445;52.490;13.378;2023-01-27T02:28:05;-12695.97;;;-146.10;100.00
12763;BME280;6445;52.490;13.378;2023-01-27T02:30:32;-12695.97;;;-146.10;100.00
12763;BME280;6445;52.490;13.378;2023-01-27T02:32:57;-12694.50;;;-146.10;100.00
12763;BME280;6445;52.490;13.378;2023-01-27T02:35:52;-12694.50;;;-146.10;100.00
12763;BME280;6445;52.490;13.378;2023-01-27T02:38:22;-12694.50;;;-146.10;100.00
12763;BME280;6445;52.490;13.378;2023-01-27T02:40:49;-12442.63;;;-146.10;100.00
12763;BME280;6445;52.490;13.378;2023-01-27T02:43:16;-12442.63;;;-146.10;100.00
12763;BME280;6445;52.490;13.378;2023-01-27T02:45:41;-12442.63;;;-146.10;100.00
12763;BME280;6445;52.490;13.378;2023-01-27T02:48:09;-12442.63;;;-146.10;100.00
12763;BME280;6445;52.490;13.378;2023-01-27T02:50:34;-12442.63;;;-146.10;100.00
12763;BME280;6445;52.490;13.378;2023-01-27T02:53:00;-12442.63;;;-146.10;100.00
12763;BME280;6445;52.490;13.378;2023-01-27T02:55:25;-12442.63;;;-146.10;100.00
12763;BME280;6445;52.490;13.378;2023-01-27T02:57:50;-12442.63;;;-146.10;100.00
12763;BME280;6445;52.490;13.378;2023-01-27T03:00:16;-12442.63;;;-146.10;100.00
12763;BME280;6445;52.490;13.378;2023-01-27T03:02:41;-12190.78;;;-146.10;100.00
12763;BME280;6445;52.490;13.378;2023-01-27T03:05:06;-12190.78;;;-146.10;100.00
12763;BME280;6445;52.490;13.378;2023-01-27T03:07:32;-12442.63;;;-146.10;100.00
12763;BME280;6445;52.490;13.378;2023-01-27T03:09:57;-12442.63;;;-146.10;100.00
12763;BME280;6445;52.490;13.378;2023-01-27T03:12:22;-12442.63;;;-146.10;100.00
12763;BME280;6445;52.490;13.378;2023-01-27T03:14:49;-12442.63;;;-146.10;100.00
12763;BME280;6445;52.490;13.378;2023-01-27T03:17:33;-12442.63;;;-146.10;100.00
12763;BME280;6445;52.490;13.378;2023-01-27T03:20:18;-12442.63;;;-146.10;100.00
12763;BME280;6445;52.490;13.378;2023-01-27T03:22:43;-12442.63;;;-146.10;100.00
12763;BME280;6445;52.490;13.378;2023-01-27T03:25:09;-12190.78;;;-146.10;100.00
12763;BME280;6445;52.490;13.378;2023-01-27T03:27:34;-11938.88;;;-146.10;100.00
12763;BME280;6445;52.490;13.378;2023-01-27T03:29:59;-11938.88;;;-146.10;100.00
12763;BME280;6445;52.490;13.378;2023-01-27T03:32:28;-11938.88;;;-146.10;100.00
12763;BME280;6445;52.490;13.378;2023-01-27T03:34:54;-11938.88;;;-146.10;100.00
12763;BME280;6445;52.490;13.378;2023-01-27T03:37:24;-11687.00;;;-146.10;100.00
12763;BME280;6445;52.490;13.378;2023-01-27T03:40:09;-11687.00;;;-146.10;100.00
12763;BME280;6445;52.490;13.378;2023-01-27T03:42:53;-11938.88;;;-146.10;100.00
12763;BME280;6445;52.490;13.378;2023-01-27T03:45:38;-11938.88;;;-146.10;100.00
12763;BME280;6445;52.490;13.378;2023-01-27T03:48:22;-12190.78;;;-146.10;100.00
12763;BME280;6445;52.490;13.378;2023-01-27T03:50:48;-12190.78;;;-146.10;100.00
12763;BME280;6445;52.490;13.378;2023-01-27T03:53:18;-12190.78;;;-146.10;100.00
12763;BME280;6445;52.490;13.378;2023-01-27T03:55:43;-12442.63;;;-146.10;100.00
12763;BME280;6445;52.490;13.378;2023-01-27T03:58:23;-12190.78;;;-146.10;100.00
12763;BME280;6445;52.490;13.378;2023-01-27T04:00:51;-12442.63;;;-146.10;100.00
12763;BME280;6445;52.490;13.378;2023-01-27T04:03:18;-12442.63;;;-146.10;100.00
12763;BME280;6445;52.490;13.378;2023-01-27T04:06:04;-12442.63;;;-146.10;100.00
12763;BME280;6445;52.490;13.378;2023-01-27T04:08:49;-12694.50;;;-146.10;100.00
12763;BME280;6445;52.490;13.378;2023-01-27T04:11:14;-12694.50;;;-146.10;100.00
12763;BME280;6445;52.490;13.378;2023-01-27T04:14:05;-12694.50;;;-146.10;100.00
12763;BME280;6445;52.490;13.378;2023-01-27T04:16:31;-12694.50;;;-146.10;100.00
12763;BME280;6445;52.490;13.378;2023-01-27T04:18:57;-12694.50;;;-146.10;100.00
12763;BME280;6445;52.490;13.378;2023-01-27T04:21:23;-12694.50;;;-146.10;100.00
12763;BME280;6445;52.490;13.378;2023-01-27T04:23:52;-12694.50;;;-146.10;100.00
12763;BME280;6445;52.490;13.378;2023-01-27T04:26:18;-12694.50;;;-146.10;100.00
12763;BME280;6445;52.490;13.378;2023-01-27T04:28:43;-12694.50;;;-146.10;100.00
12763;BME280;6445;52.490;13.378;2023-01-27T04:31:09;-12694.50;;;-146.10;100.00
12763;BME280;6445;52.490;13.378;2023-01-27T04:33:34;-12694.50;;;-146.10;100.00
12763;BME280;6445;52.490;13.378;2023-01-27T04:36:00;-12694.50;;;-146.10;100.00
12763;BME280;6445;52.490;13.378;2023-01-27T04:38:25;-12694.50;;;-146.10;100.00
12763;BME280;6445;52.490;13.378;2023-01-27T04:40:50;-12695.97;;;-146.10;100.00
12763;BME280;6445;52.490;13.378;2023-01-27T04:43:15;-12694.50;;;-146.10;100.00
12763;BME280;6445;52.490;13.378;2023-01-27T04:45:41;-12695.97;;;-146.10;100.00
12763;BME280;6445;52.490;13.378;2023-01-27T04:48:06;-12695.97;;;-146.10;100.00
12763;BME280;6445;52.490;13.378;2023-01-27T04:50:32;-12695.97;;;-146.10;100.00
12763;BME280;6445;52.490;13.378;2023-01-27T04:52:57;-12695.97;;;-146.10;100.00
12763;BME280;6445;52.490;13.378;2023-01-27T04:55:22;-12695.97;;;-146.10;100.00
12763;BME280;6445;52.490;13.378;2023-01-27T04:57:48;-12695.97;;;-146.10;100.00
12763;BME280;6445;52.490;13.378;2023-01-27T05:00:13;-12695.97;;;-146.10;100.00
12763;BME280;6445;52.490;13.378;2023-01-27T05:02:39;-12695.97;;;-146.10;100.00
12763;BME280;6445;52.490;13.378;2023-01-27T05:05:04;-12695.97;;;-146.10;100.00
12763;BME280;6445;52.490;13.378;2023-01-27T05:07:30;-12695.97;;;-146.10;100.00
12763;BME280;6445;52.490;13.378;2023-01-27T05:09:57;-12695.97;;;-146.10;100.00
12763;BME280;6445;52.490;13.378;2023-01-27T05:12:22;-12695.97;;;-146.10;100.00
12763;BME280;6445;52.490;13.378;2023-01-27T05:14:47;-12695.97;;;-146.10;100.00
12763;BME280;6445;52.490;13.378;2023-01-27T05:17:13;-12695.97;;;-146.10;100.00
12763;BME280;6445;52.490;13.378;2023-01-27T05:19:38;-12695.97;;;-146.10;100.00
12763;BME280;6445;52.490;13.378;2023-01-27T05:22:03;-12695.97;;;-146.10;100.00
12763;BME280;6445;52.490;13.378;2023-01-27T05:24:28;-12695.97;;;-146.10;100.00
12763;BME280;6445;52.490;13.378;2023-01-27T05:26:53;-12695.97;;;-146.10;100.00
12763;BME280;6445;52.490;13.378;2023-01-27T05:29:19;-12695.97;;;-146.10;100.00
12763;BME280;6445;52.490;13.378;2023-01-27T05:31:44;-12695.97;;;-146.10;100.00
12763;BME280;6445;52.490;13.378;2023-01-27T05:34:09;-12695.97;;;-146.10;100.00
12763;BME280;6445;52.490;13.378;2023-01-27T05:36:35;-12695.97;;;-146.10;100.00
12763;BME280;6445;52.490;13.378;2023-01-27T05:39:00;-12695.97;;;-146.10;100.00
12763;BME280;6445;52.490;13.378;2023-01-27T05:41:28;-12695.97;;;-146.10;100.00
12763;BME280;6445;52.490;13.378;2023-01-27T05:43:55;-12695.97;;;-146.10;100.00
12763;BME280;6445;52.490;13.378;2023-01-27T05:46:23;-12695.97;;;-146.10;100.00
12763;BME280;6445;52.490;13.378;2023-01-27T05:48:51;-12695.97;;;-146.10;100.00
12763;BME280;6445;52.490;13.378;2023-01-27T05:51:18;-12695.97;;;-146.10;100.00
12763;BME280;6445;52.490;13.378;2023-01-27T05:53:44;-12695.97;;;-146.10;100.00
12763;BME280;6445;52.490;13.378;2023-01-27T05:56:11;-12695.97;;;-146.10;100.00
12763;BME280;6445;52.490;13.378;2023-01-27T05:58:38;-12695.97;;;-146.10;100.00
12763;BME280;6445;52.490;13.378;2023-01-27T06:01:17;-12695.97;;;-146.10;100.00
12763;BME280;6445;52.490;13.378;2023-01-27T06:03:44;-12695.97;;;-146.10;100.00
12763;BME280;6445;52.490;13.378;2023-01-27T06:06:10;-12695.97;;;-146.10;100.00
12763;BME280;6445;52.490;13.378;2023-01-27T06:08:37;-12695.97;;;-146.10;100.00
12763;BME280;6445;52.490;13.378;2023-01-27T06:11:02;-12695.97;;;-146.10;100.00
12763;BME280;6445;52.490;13.378;2023-01-27T06:13:27;-12695.97;;;-146.10;100.00
12763;BME280;6445;52.490;13.378;2023-01-27T06:15:53;-12695.97;;;-146.10;100.00
12763;BME280;6445;52.490;13.378;2023-01-27T06:18:22;-12695.97;;;-146.10;100.00
12763;BME280;6445;52.490;13.378;2023-01-27T06:20:47;-12695.97;;;-146.10;100.00
12763;BME280;6445;52.490;13.378;2023-01-27T06:23:14;-12695.97;;;-146.10;100.00
12763;BME280;6445;52.490;13.378;2023-01-27T06:25:46;-12695.97;;;-146.10;100.00
12763;BME280;6445;52.490;13.378;2023-01-27T06:28:12;-12695.97;;;-146.10;100.00
12763;BME280;6445;52.490;13.378;2023-01-27T06:30:38;-12695.97;;;-146.10;100.00
12763;BME280;6445;52.490;13.378;2023-01-27T06:33:04;-12695.97;;;-146.10;100.00
12763;BME280;6445;52.490;13.378;2023-01-27T06:35:30;-12695.97;;;-146.10;100.00
12763;BME280;6445;52.490;13.378;2023-01-27T06:37:59;-12695.97;;;-146.10;100.00
12763;BME280;6445;52.490;13.378;2023-01-27T06:40:25;-12695.97;;;-146.10;100.00
12763;BME280;6445;52.490;13.378;2023-01-27T06:42:51;-12695.97;;;-146.10;100.00
12763;BME280;6445;52.490;13.378;2023-01-27T06:45:16;-12695.97;;;-146.10;100.00
12763;BME280;6445;52.490;13.378;2023-01-27T06:47:42;-12695.97;;;-146.10;100.00
12763;BME280;6445;52.490;13.378;2023-01-27T06:50:08;-12695.97;;;-146.10;100.00
12763;BME280;6445;52.490;13.378;2023-01-27T06:52:34;-12695.97;;;-146.10;100.00
12763;BME280;6445;52.490;13.378;2023-01-27T06:54:59;-12695.97;;;-146.10;100.00
12763;BME280;6445;52.490;13.378;2023-01-27T06:57:24;-12695.97;;;-146.10;100.00
12763;BME280;6445;52.490;13.378;2023-01-27T06:59:50;-12695.97;;;-146.10;100.00
12763;BME280;6445;52.490;13.378;2023-01-27T07:02:15;-12695.97;;;-146.10;100.00
12763;BME280;6445;52.490;13.378;2023-01-27T07:04:40;-12695.97;;;-146.10;100.00
12763;BME280;6445;52.490;13.378;2023-01-27T07:07:06;-12695.97;;;-146.10;100.00
12763;BME280;6445;52.490;13.378;2023-01-27T07:09:31;-12695.97;;;-146.10;100.00
12763;BME280;6445;52.490;13.378;2023-01-27T07:11:56;-12695.97;;;-146.10;100.00
12763;BME280;6445;52.490;13.378;2023-01-27T07:14:21;-12695.97;;;-146.10;100.00
12763;BME280;6445;52.490;13.378;2023-01-27T07:16:47;-12695.97;;;-146.10;100.00
12763;BME280;6445;52.490;13.378;2023-01-27T07:19:12;-12695.97;;;-146.10;100.00
12763;BME280;6445;52.490;13.378;2023-01-27T07:21:38;-12695.97;;;-146.10;100.00
12763;BME280;6445;52.490;13.378;2023-01-27T07:24:04;-12695.97;;;-146.10;100.00
12763;BME280;6445;52.490;13.378;2023-01-27T07:26:29;-12695.97;;;-146.10;100.00
12763;BME280;6445;52.490;13.378;2023-01-27T07:28:55;-12695.97;;;-146.10;100.00
12763;BME280;6445;52.490;13.378;2023-01-27T07:31:21;-12695.97;;;-146.10;100.00
12763;BME280;6445;52.490;13.378;2023-01-27T07:33:46;-12695.97;;;-146.10;100.00
12763;BME280;6445;52.490;13.378;2023-01-27T07:36:12;-12695.97;;;-146.10;100.00
12763;BME280;6445;52.490;13.378;2023-01-27T07:38:37;-12695.97;;;-146.10;100.00
12763;BME280;6445;52.490;13.378;2023-01-27T07:41:04;-12695.97;;;-146.10;100.00
12763;BME280;6445;52.490;13.378;2023-01-27T07:43:30;-12695.97;;;-146.10;100.00
12763;BME280;6445;52.490;13.378;2023-01-27T07:45:55;-12695.97;;;-146.10;100.00
12763;BME280;6445;52.490;13.378;2023-01-27T07:48:21;-12695.97;;;-146.10;100.00
12763;BME280;6445;52.490;13.378;2023-01-27T07:50:46;-12695.97;;;-146.10;100.00
12763;BME280;6445;52.490;13.378;2023-01-27T07:53:12;-12695.97;;;-146.10;100.00
12763;BME280;6445;52.490;13.378;2023-01-27T07:55:37;-12695.97;;;-146.10;100.00
12763;BME280;6445;52.490;13.378;2023-01-27T07:58:02;-12695.97;;;-146.10;100.00
12763;BME280;6445;52.490;13.378;2023-01-27T08:00:28;-12695.97;;;-146.10;100.00
12763;BME280;6445;52.490;13.378;2023-01-27T08:02:54;-12695.97;;;-146.10;100.00
12763;BME280;6445;52.490;13.378;2023-01-27T08:05:20;-12695.97;;;-146.10;100.00
12763;BME280;6445;52.490;13.378;2023-01-27T08:07:46;-12695.97;;;-146.10;100.00
12763;BME280;6445;52.490;13.378;2023-01-27T08:10:11;-12695.97;;;-146.10;100.00
12763;BME280;6445;52.490;13.378;2023-01-27T08:12:37;-12695.97;;;-146.10;100.00
12763;BME280;6445;52.490;13.378;2023-01-27T08:15:03;-12695.97;;;-146.10;100.00
12763;BME280;6445;52.490;13.378;2023-01-27T08:17:28;-12695.97;;;-146.10;100.00
12763;BME280;6445;52.490;13.378;2023-01-27T08:19:53;-12695.97;;;-146.10;100.00
12763;BME280;6445;52.490;13.378;2023-01-27T08:22:18;-12695.97;;;-146.10;100.00
12763;BME280;6445;52.490;13.378;2023-01-27T08:24:47;-12695.97;;;-146.10;100.00
12763;BME280;6445;52.490;13.378;2023-01-27T08:27:13;-12695.97;;;-146.10;100.00
12763;BME280;6445;52.490;13.378;2023-01-27T08:29:38;-12695.97;;;-146.10;100.00
12763;BME280;6445;52.490;13.378;2023-01-27T08:32:04;-12695.97;;;-146.10;100.00
12763;BME280;6445;52.490;13.378;2023-01-27T08:34:29;-12695.97;;;-146.10;100.00
12763;BME280;6445;52.490;13.378;2023-01-27T08:36:54;-12695.97;;;-146.10;100.00
12763;BME280;6445;52.490;13.378;2023-01-27T08:39:20;-12695.97;;;-146.10;100.00
12763;BME280;6445;52.490;13.378;2023-01-27T08:41:45;-12695.97;;;-146.10;100.00
12763;BME280;6445;52.490;13.378;2023-01-27T08:44:10;-12695.97;;;-146.10;100.00
12763;BME280;6445;52.490;13.378;2023-01-27T08:46:36;-12695.97;;;-146.10;100.00
12763;BME280;6445;52.490;13.378;2023-01-27T08:49:01;-12695.97;;;-146.10;100.00
12763;BME280;6445;52.490;13.378;2023-01-27T08:51:27;-12695.97;;;-146.10;100.00
12763;BME280;6445;52.490;13.378;2023-01-27T08:53:52;-12695.97;;;-146.10;100.00
12763;BME280;6445;52.490;13.378;2023-01-27T08:56:18;-12695.97;;;-146.10;100.00
12763;BME280;6445;52.490;13.378;2023-01-27T08:58:43;-12695.97;;;-146.10;100.00
12763;BME280;6445;52.490;13.378;2023-01-27T09:01:11;-12695.97;;;-146.10;100.00
12763;BME280;6445;52.490;13.378;2023-01-27T09:03:36;-12695.97;;;-146.10;100.00
12763;BME280;6445;52.490;13.378;2023-01-27T09:06:03;-12695.97;;;-146.10;100.00
12763;BME280;6445;52.490;13.378;2023-01-27T09:08:29;-12695.97;;;-146.10;100.00
12763;BME280;6445;52.490;13.378;2023-01-27T09:10:56;-12695.97;;;-146.10;100.00
12763;BME280;6445;52.490;13.378;2023-01-27T09:13:21;-12695.97;;;-146.10;100.00
12763;BME280;6445;52.490;13.378;2023-01-27T09:15:47;-12695.97;;;-146.10;100.00
12763;BME280;6445;52.490;13.378;2023-01-27T09:18:14;-12695.97;;;-146.10;100.00
12763;BME280;6445;52.490;13.378;2023-01-27T09:20:39;-12695.97;;;-146.10;100.00
12763;BME280;6445;52.490;13.378;2023-01-27T09:23:05;-12695.97;;;-146.10;100.00
12763;BME280;6445;52.490;13.378;2023-01-27T09:25:31;-12695.97;;;-146.10;100.00
12763;BME280;6445;52.490;13.378;2023-01-27T09:27:57;-12695.97;;;-146.10;100.00
12763;BME280;6445;52.490;13.378;2023-01-27T09:30:24;-12695.97;;;-146.10;100.00
12763;BME280;6445;52.490;13.378;2023-01-27T09:32:49;-12695.97;;;-146.10;100.00
12763;BME280;6445;52.490;13.378;2023-01-27T09:35:14;-12695.97;;;-146.10;100.00
12763;BME280;6445;52.490;13.378;2023-01-27T09:37:58;-12695.97;;;-146.10;100.00
12763;BME280;6445;52.490;13.378;2023-01-27T09:48:50;-12695.97;;;-146.10;100.00
12763;BME280;6445;52.490;13.378;2023-01-27T09:51:35;-12695.97;;;-146.10;100.00
12763;BME280;6445;52.490;13.378;2023-01-27T09:54:22;-12695.97;;;-146.10;100.00
12763;BME280;6445;52.490;13.378;2023-01-27T09:57:28;-12695.97;;;-146.10;100.00
12763;BME280;6445;52.490;13.378;2023-01-27T10:00:29;-12695.97;;;-146.10;100.00
12763;BME280;6445;52.490;13.378;2023-01-27T10:03:21;-12695.97;;;-146.10;100.00
12763;BME280;6445;52.490;13.378;2023-01-27T10:11:37;-12695.97;;;-146.10;100.00
12763;BME280;6445;52.490;13.378;2023-01-27T10:14:18;-12695.97;;;-146.10;100.00
12763;BME280;6445;52.490;13.378;2023-01-27T10:16:58;-12695.97;;;-146.10;100.00
12763;BME280;6445;52.490;13.378;2023-01-27T10:19:44;-12695.97;;;-146.10;100.00
12763;BME280;6445;52.490;13.378;2023-01-27T10:22:24;-12695.97;;;-146.10;100.00
12763;BME280;6445;52.490;13.378;2023-01-27T10:25:11;-12695.97;;;-146.10;100.00
12763;BME280;6445;52.490;13.378;2023-01-27T10:27:45;-12695.97;;;-146.10;100.00
12763;BME280;6445;52.490;13.378;2023-01-27T10:30:20;-12695.97;;;-146.10;100.00
12763;BME280;6445;52.490;13.378;2023-01-27T10:33:01;-12695.97;;;-146.10;100.00
12763;BME280;6445;52.490;13.378;2023-01-27T10:35:32;-12695.97;;;-146.10;100.00
12763;BME280;6445;52.490;13.378;2023-01-27T10:38:33;-12695.97;;;-146.10;100.00
12763;BME280;6445;52.490;13.378;2023-01-27T10:41:13;-12695.97;;;-146.10;100.00
12763;BME280;6445;52.490;13.378;2023-01-27T10:46:58;-12695.97;;;-146.10;100.00
12763;BME280;6445;52.490;13.378;2023-01-27T10:49:30;-12695.97;;;-146.10;100.00
12763;BME280;6445;52.490;13.378;2023-01-27T10:54:33;-12695.97;;;-146.10;100.00
12763;BME280;6445;52.490;13.378;2023-01-27T10:57:13;-12695.97;;;-146.10;100.00
12763;BME280;6445;52.490;13.378;2023-01-27T10:59:52;-12695.97;;;-146.10;100.00
12763;BME280;6445;52.490;13.378;2023-01-27T11:05:01;-12695.97;;;-146.10;100.00
12763;BME280;6445;52.490;13.378;2023-01-27T11:07:30;-12695.97;;;-146.10;100.00
12763;BME280;6445;52.490;13.378;2023-01-27T11:10:01;-12695.97;;;-146.10;100.00
12763;BME280;6445;52.490;13.378;2023-01-27T11:12:34;-12695.97;;;-146.10;100.00
12763;BME280;6445;52.490;13.378;2023-01-27T11:15:19;-12695.97;;;-146.10;100.00
12763;BME280;6445;52.490;13.378;2023-01-27T11:18:15;-12695.97;;;-146.10;100.00
12763;BME280;6445;52.490;13.378;2023-01-27T11:20:50;-12695.97;;;-146.10;100.00
12763;BME280;6445;52.490;13.378;2023-01-27T11:23:23;-12695.97;;;-146.10;100.00
12763;BME280;6445;52.490;13.378;2023-01-27T11:26:05;-12695.97;;;-146.10;100.00
12763;BME280;6445;52.490;13.378;2023-01-27T11:28:44;-12695.97;;;-146.10;100.00
12763;BME280;6445;52.490;13.378;2023-01-27T11:34:42;-12695.97;;;-146.10;100.00
12763;BME280;6445;52.490;13.378;2023-01-27T11:37:17;-12695.97;;;-146.10;100.00
12763;BME280;6445;52.490;13.378;2023-01-27T11:39:43;-12695.97;;;-146.10;100.00
12763;BME280;6445;52.490;13.378;2023-01-27T11:42:10;-12695.97;;;-146.10;100.00
12763;BME280;6445;52.490;13.378;2023-01-27T11:44:36;-12190.78;;;-146.10;100.00
12763;BME280;6445;52.490;13.378;2023-01-27T11:47:04;-11938.88;;;-146.10;100.00
12763;BME280;6445;52.490;13.378;2023-01-27T11:49:34;-11938.88;;;-146.10;100.00
12763;BME280;6445;52.490;13.378;2023-01-27T11:52:08;-11435.06;;;-146.10;100.00
12763;BME280;6445;52.490;13.378;2023-01-27T11:54:39;-11183.13;;;-146.10;100.00
12763;BME280;6445;52.490;13.378;2023-01-27T11:57:16;-10679.22;;;-146.10;100.00
12763;BME280;6445;52.490;13.378;2023-01-27T11:59:44;-10931.19;;;-146.10;100.00
12763;BME280;6445;52.490;13.378;2023-01-27T12:02:33;-11183.13;;;-146.10;100.00
12763;BME280;6445;52.490;13.378;2023-01-27T12:05:08;-10679.22;;;-146.10;100.00
12763;BME280;6445;52.490;13.378;2023-01-27T12:08:33;-10175.25;;;-146.10;100.00
12763;BME280;6445;52.490;13.378;2023-01-27T12:10:32;-9671.19;;;-146.10;100.00
12763;BME280;6445;52.490;13.378;2023-01-27T12:13:06;-9167.06;;;-146.10;100.00
12763;BME280;6445;52.490;13.378;2023-01-27T12:15:33;-9167.06;;;-146.10;100.00
12763;BME280;6445;52.490;13.378;2023-01-27T12:18:02;-8915.00;;;-146.10;100.00
12763;BME280;6445;52.490;13.378;2023-01-27T12:20:42;-9923.22;;;-146.10;100.00
12763;BME280;6445;52.490;13.378;2023-01-27T12:23:30;-10679.22;;;-146.10;100.00
12763;BME280;6445;52.490;13.378;2023-01-27T12:26:06;-11183.13;;;-146.10;100.00
12763;BME280;6445;52.490;13.378;2023-01-27T12:28:34;-11435.06;;;-146.10;100.00
12763;BME280;6445;52.490;13.378;2023-01-27T12:31:16;-11687.00;;;-146.10;100.00
12763;BME280;6445;52.490;13.378;2023-01-27T12:33:57;-11435.06;;;-146.10;100.00
12763;BME280;6445;52.490;13.378;2023-01-27T12:36:23;-11687.00;;;-146.10;100.00
12763;BME280;6445;52.490;13.378;2023-01-27T12:38:54;-11938.88;;;-146.10;100.00
12763;BME280;6445;52.490;13.378;2023-01-27T12:41:24;-11687.00;;;-146.10;100.00
12763;BME280;6445;52.490;13.378;2023-01-27T12:43:52;-11938.88;;;-146.10;100.00
12763;BME280;6445;52.490;13.378;2023-01-27T12:46:30;-12190.78;;;-146.10;100.00
12763;BME280;6445;52.490;13.378;2023-01-27T12:49:00;-12190.78;;;-146.10;100.00
12763;BME280;6445;52.490;13.378;2023-01-27T12:51:41;-12190.78;;;-146.10;100.00
12763;BME280;6445;52.490;13.378;2023-01-27T12:54:22;-11938.88;;;-146.10;100.00
12763;BME280;6445;52.490;13.378;2023-01-27T12:56:49;-11687.00;;;-146.10;100.00
12763;BME280;6445;52.490;13.378;2023-01-27T12:59:16;-11938.88;;;-146.10;100.00
12763;BME280;6445;52.490;13.378;2023-01-27T13:01:43;-11687.00;;;-146.10;100.00
12763;BME280;6445;52.490;13.378;2023-01-27T13:04:22;-12190.78;;;-146.10;100.00